Time;durP1;ratioP1;P1;durP2;ratioP2;P2;SDS_P1;SDS_P2;PMS_P1;PMS_P2;Temp;Humidity;BMP_temperature;BMP_pressure;BME280_temperature;BME280_humidity;BME280_pressure;Samples;Min_cycle;Max_cycle;Signal;HPM_P1;HPM_P2
2024/01/09 00:00:47;;;;;;;0.40;0.40;;;-5.20;99.90;;;;;;4382403;32;20106;-62
2024/01/09 00:03:13;;;;;;;0.43;0.43;;;-5.30;99.90;;;;;;4384743;32;20083;-63
2024/01/09 00:05:38;;;;;;;0.47;0.47;;;-5.30;99.90;;;;;;4386390;32;20057;-63
2024/01/09 00:08:04;;;;;;;0.40;0.40;;;-5.30;99.90;;;;;;4382682;32;20081;-62
2024/01/09 00:10:29;;;;;;;0.50;0.50;;;-5.30;99.90;;;;;;4384031;32;20090;-62
2024/01/09 00:12:56;;;;;;;1.00;1.00;;;-5.30;99.90;;;;;;4369820;32;20093;-63
2024/01/09 00:15:22;;;;;;;0.40;0.40;;;-5.40;99.90;;;;;;4386254;32;20078;-63
2024/01/09 00:17:47;;;;;;;0.40;0.40;;;-5.30;99.90;;;;;;4385093;32;20130;-62
2024/01/09 00:20:13;;;;;;;0.50;0.50;;;-5.30;99.90;;;;;;4383592;32;21208;-62
2024/01/09 00:22:39;;;;;;;0.50;0.50;;;-5.40;99.90;;;;;;4383654;32;20094;-62
2024/01/09 00:25:06;;;;;;;0.57;0.57;;;-5.40;99.90;;;;;;4386040;32;20066;-62
2024/01/09 00:27:31;;;;;;;0.70;0.70;;;-5.40;99.90;;;;;;4381385;32;20427;-62
2024/01/09 00:29:59;;;;;;;0.60;0.60;;;-5.50;99.90;;;;;;4384582;32;20136;-62
2024/01/09 00:32:24;;;;;;;11.98;2.83;;;-5.50;99.90;;;;;;4378726;32;20093;-61
2024/01/09 00:34:50;;;;;;;2.72;2.22;;;-5.50;99.90;;;;;;4382091;32;20497;-62
2024/01/09 00:37:15;;;;;;;0.57;0.57;;;-5.50;99.90;;;;;;4381476;32;20062;-62
2024/01/09 00:39:41;;;;;;;0.60;0.60;;;-5.60;99.90;;;;;;4383388;32;20470;-62
2024/01/09 00:42:06;;;;;;;0.50;0.50;;;-5.60;99.90;;;;;;4383077;32;20069;-63
2024/01/09 00:44:32;;;;;;;0.62;0.62;;;-5.60;99.90;;;;;;4386478;32;20082;-62
2024/01/09 00:46:57;;;;;;;0.65;0.65;;;-5.60;99.90;;;;;;4384254;32;20071;-64
2024/01/09 00:49:23;;;;;;;0.50;0.50;;;-5.60;99.90;;;;;;4384718;32;20435;-64
2024/01/09 00:51:48;;;;;;;1.98;1.58;;;-5.50;99.90;;;;;;4386368;32;20743;-64
2024/01/09 00:54:14;;;;;;;1.90;1.25;;;-5.50;99.90;;;;;;4382689;32;20078;-62
2024/01/09 00:56:39;;;;;;;0.68;0.68;;;-5.60;99.90;;;;;;4388246;32;20090;-62
2024/01/09 00:59:05;;;;;;;0.70;0.68;;;-5.60;99.90;;;;;;4383935;32;20074;-62
2024/01/09 01:01:30;;;;;;;1.85;1.60;;;-5.60;99.90;;;;;;4383033;32;20743;-62
2024/01/09 01:03:56;;;;;;;0.50;0.50;;;-5.60;99.90;;;;;;4386040;32;20062;-63
2024/01/09 01:06:21;;;;;;;1.48;1.42;;;-5.60;99.90;;;;;;4384677;32;20083;-63
2024/01/09 01:08:47;;;;;;;0.52;0.52;;;-5.60;99.90;;;;;;4385203;32;20089;-63
2024/01/09 01:11:12;;;;;;;0.73;0.73;;;-5.60;99.90;;;;;;4385154;32;20089;-62
2024/01/09 01:13:38;;;;;;;2.47;1.33;;;-5.60;99.90;;;;;;4388070;32;20090;-63
2024/01/09 01:16:03;;;;;;;19.37;1.65;;;-5.70;99.90;;;;;;4388213;32;20102;-63
2024/01/09 01:18:29;;;;;;;2.75;1.87;;;-5.70;99.90;;;;;;4389305;32;20102;-62
2024/01/09 01:20:54;;;;;;;0.50;0.50;;;-5.70;99.90;;;;;;4390681;32;20066;-63
2024/01/09 01:23:20;;;;;;;0.55;0.55;;;-5.70;99.90;;;;;;4389519;32;20086;-63
2024/01/09 01:25:45;;;;;;;0.40;0.40;;;-5.70;99.90;;;;;;4388125;32;20467;-63
2024/01/09 01:28:11;;;;;;;0.50;0.50;;;-5.70;99.90;;;;;;4387496;32;20074;-63
2024/01/09 01:30:36;;;;;;;0.50;0.50;;;-5.80;99.90;;;;;;4385972;32;20443;-63
2024/01/09 01:33:03;;;;;;;1.05;1.05;;;-5.80;99.90;;;;;;4384234;32;20519;-63
2024/01/09 01:35:28;;;;;;;0.55;0.55;;;-5.90;99.90;;;;;;4387543;32;20078;-63
2024/01/09 01:37:53;;;;;;;0.85;0.85;;;-5.90;99.90;;;;;;4377032;32;20470;-63
2024/01/09 01:40:19;;;;;;;3.00;1.70;;;-6.00;99.90;;;;;;4386791;32;20062;-63
2024/01/09 01:42:44;;;;;;;1.45;1.35;;;-6.00;99.90;;;;;;4384887;32;20391;-62
2024/01/09 01:45:22;;;;;;;0.40;0.40;;;-6.00;99.90;;;;;;4377075;32;20058;-62
2024/01/09 01:47:48;;;;;;;0.73;0.73;;;-6.00;99.90;;;;;;4362937;32;20098;-64
2024/01/09 01:50:14;;;;;;;0.65;0.65;;;-6.00;99.90;;;;;;4384176;32;20086;-62
2024/01/09 01:52:41;;;;;;;0.70;0.70;;;-6.00;99.90;;;;;;4386832;32;20091;-63
2024/01/09 01:55:10;;;;;;;0.70;0.70;;;-6.10;99.90;;;;;;4373706;32;20077;-65
2024/01/09 01:57:38;;;;;;;0.73;0.73;;;-6.00;99.90;;;;;;4386338;32;20062;-64
2024/01/09 02:00:04;;;;;;;0.60;0.60;;;-6.00;99.90;;;;;;4375802;32;20094;-63
2024/01/09 02:02:31;;;;;;;0.50;0.50;;;-6.10;99.90;;;;;;4385962;32;20136;-62
2024/01/09 02:04:57;;;;;;;0.60;0.60;;;-6.10;99.90;;;;;;4372598;32;20699;-64
2024/01/09 02:07:26;;;;;;;1.08;1.08;;;-6.20;99.90;;;;;;4382702;32;20124;-64
2024/01/09 02:09:53;;;;;;;8.48;2.90;;;-6.20;99.90;;;;;;4370581;32;20086;-62
2024/01/09 02:12:19;;;;;;;0.60;0.60;;;-6.10;99.90;;;;;;4386137;32;20083;-63
2024/01/09 02:14:44;;;;;;;4.75;2.37;;;-6.10;99.90;;;;;;4387701;32;20085;-63
2024/01/09 02:17:10;;;;;;;0.95;0.95;;;-6.20;99.90;;;;;;4385335;32;20506;-63
2024/01/09 02:19:36;;;;;;;1.35;1.33;;;-6.10;99.90;;;;;;4381669;32;20091;-62
2024/01/09 02:22:01;;;;;;;0.50;0.50;;;-6.10;99.90;;;;;;4380358;32;20066;-62
2024/01/09 02:24:26;;;;;;;0.82;0.82;;;-6.20;99.90;;;;;;4382772;32;20087;-62
2024/01/09 02:27:16;;;;;;;0.45;0.45;;;-6.30;99.90;;;;;;4385277;32;20090;-64
2024/01/09 02:29:49;;;;;;;0.68;0.68;;;-6.20;99.90;;;;;;4374772;32;21041;-62
2024/01/09 02:32:16;;;;;;;0.70;0.70;;;-6.20;99.90;;;;;;4371457;32;20845;-63
2024/01/09 02:34:44;;;;;;;0.50;0.50;;;-6.20;99.90;;;;;;4383584;32;20192;-63
2024/01/09 02:37:10;;;;;;;0.80;0.80;;;-6.30;99.90;;;;;;4369136;32;20581;-63
2024/01/09 02:39:36;;;;;;;0.50;0.50;;;-6.30;99.90;;;;;;4385026;32;20070;-63
2024/01/09 02:42:02;;;;;;;0.60;0.60;;;-6.50;99.90;;;;;;4370069;32;20078;-63
2024/01/09 02:44:27;;;;;;;0.43;0.43;;;-6.50;99.90;;;;;;4384329;32;20573;-63
2024/01/09 02:46:53;;;;;;;0.50;0.50;;;-6.40;99.90;;;;;;4384570;32;20065;-63
2024/01/09 02:49:18;;;;;;;0.50;0.50;;;-6.40;99.90;;;;;;4385257;32;20075;-63
2024/01/09 02:51:44;;;;;;;0.50;0.50;;;-6.50;99.90;;;;;;4382369;32;20102;-61
2024/01/09 02:54:09;;;;;;;0.98;0.98;;;-6.50;99.90;;;;;;4383519;32;20381;-63
2024/01/09 02:56:37;;;;;;;0.57;0.57;;;-6.50;99.90;;;;;;4382756;32;20081;-63
2024/01/09 02:59:03;;;;;;;0.70;0.70;;;-6.40;99.90;;;;;;4384021;32;20089;-63
2024/01/09 03:01:28;;;;;;;0.40;0.40;;;-6.50;99.90;;;;;;4384687;32;20070;-62
2024/01/09 03:03:53;;;;;;;0.60;0.60;;;-6.50;99.90;;;;;;4384978;32;20192;-64
2024/01/09 03:06:19;;;;;;;0.50;0.50;;;-6.50;99.90;;;;;;4383380;32;20086;-64
2024/01/09 03:08:44;;;;;;;0.57;0.57;;;-6.60;99.90;;;;;;4382649;32;20082;-63
2024/01/09 03:11:10;;;;;;;0.90;0.90;;;-6.60;99.90;;;;;;4381240;32;20094;-63
2024/01/09 03:13:35;;;;;;;1.75;1.65;;;-6.50;99.90;;;;;;4385983;32;20436;-64
2024/01/09 03:16:01;;;;;;;0.80;0.80;;;-6.60;99.90;;;;;;4392544;32;20086;-62
2024/01/09 03:18:26;;;;;;;0.43;0.43;;;-6.60;99.90;;;;;;4391025;32;20070;-64
2024/01/09 03:20:52;;;;;;;0.70;0.70;;;-6.60;99.90;;;;;;4383935;32;20146;-63
2024/01/09 03:23:17;;;;;;;0.60;0.60;;;-6.60;99.90;;;;;;4383504;32;20578;-62
2024/01/09 03:25:43;;;;;;;0.65;0.65;;;-6.70;99.90;;;;;;4390359;32;20078;-61
2024/01/09 03:28:08;;;;;;;0.88;0.88;;;-6.60;99.90;;;;;;4389232;32;20513;-63
2024/01/09 03:30:34;;;;;;;0.60;0.60;;;-6.70;99.90;;;;;;4385694;32;20082;-64
2024/01/09 03:33:00;;;;;;;0.50;0.50;;;-6.60;99.90;;;;;;4388214;32;20074;-63
2024/01/09 03:35:26;;;;;;;2.35;1.95;;;-6.60;99.90;;;;;;4386083;32;20078;-63
2024/01/09 03:37:51;;;;;;;1.05;1.05;;;-6.60;99.90;;;;;;4373101;32;20090;-62
2024/01/09 03:40:16;;;;;;;0.40;0.40;;;-6.60;99.90;;;;;;4380674;32;20086;-64
2024/01/09 03:42:42;;;;;;;2.08;1.95;;;-6.60;99.90;;;;;;4381885;32;20078;-64
2024/01/09 03:45:08;;;;;;;0.50;0.50;;;-6.70;99.90;;;;;;4386907;32;20086;-63
2024/01/09 03:47:34;;;;;;;9.73;2.30;;;-6.80;99.90;;;;;;4386260;32;20066;-61
2024/01/09 03:49:59;;;;;;;3.85;1.60;;;-6.80;99.90;;;;;;4386940;32;20523;-63
2024/01/09 03:52:25;;;;;;;0.50;0.50;;;-6.80;99.90;;;;;;4371794;32;20069;-62
2024/01/09 03:54:51;;;;;;;0.50;0.50;;;-6.70;99.90;;;;;;4388927;32;20083;-62
2024/01/09 03:57:16;;;;;;;1.35;1.25;;;-6.80;99.90;;;;;;4390521;32;20066;-62
2024/01/09 03:59:42;;;;;;;1.40;1.30;;;-6.80;99.90;;;;;;4386670;32;20074;-63
2024/01/09 04:02:07;;;;;;;0.70;0.70;;;-6.80;99.90;;;;;;4388855;32;20070;-64
2024/01/09 04:04:33;;;;;;;0.60;0.60;;;-6.90;99.90;;;;;;4385286;32;20069;-64
2024/01/09 04:06:58;;;;;;;0.73;0.73;;;-6.80;99.90;;;;;;4384543;32;20117;-63
2024/01/09 04:09:24;;;;;;;1.85;1.50;;;-6.90;99.90;;;;;;4382113;32;20102;-64
2024/01/09 04:11:49;;;;;;;2.50;1.35;;;-6.90;99.90;;;;;;4385802;32;20588;-62
2024/01/09 04:14:15;;;;;;;0.93;0.93;;;-6.80;99.90;;;;;;4382584;32;20077;-63
2024/01/09 04:16:48;;;;;;;0.80;0.80;;;-6.80;99.90;;;;;;4389350;32;20066;-63
2024/01/09 04:19:14;;;;;;;0.60;0.60;;;-6.90;99.90;;;;;;4385294;32;20126;-63
2024/01/09 04:21:39;;;;;;;1.27;1.23;;;-6.90;99.90;;;;;;4387859;32;20095;-62
2024/01/09 04:24:05;;;;;;;0.50;0.50;;;-7.00;99.90;;;;;;4386395;32;20074;-63
2024/01/09 04:26:30;;;;;;;0.50;0.50;;;-7.00;99.90;;;;;;4387888;32;20463;-63
2024/01/09 04:28:55;;;;;;;1.85;1.50;;;-7.00;99.90;;;;;;4384875;32;20066;-62
2024/01/09 04:31:25;;;;;;;1.20;1.20;;;-7.00;99.90;;;;;;4384514;32;20697;-63
2024/01/09 04:33:51;;;;;;;0.70;0.70;;;-7.00;99.90;;;;;;4386127;32;20105;-63
2024/01/09 04:36:17;;;;;;;0.50;0.50;;;-7.00;99.90;;;;;;4386932;32;20066;-62
2024/01/09 04:38:45;;;;;;;0.98;0.98;;;-7.00;99.90;;;;;;4384536;32;20077;-61
2024/01/09 04:41:15;;;;;;;0.50;0.50;;;-7.00;99.90;;;;;;4386634;32;20108;-62
2024/01/09 04:43:40;;;;;;;0.50;0.50;;;-7.00;99.90;;;;;;4381457;32;20081;-62
2024/01/09 04:46:07;;;;;;;0.43;0.43;;;-7.00;99.90;;;;;;4387729;32;20152;-63
2024/01/09 04:48:32;;;;;;;0.62;0.62;;;-7.00;99.90;;;;;;4388793;32;20089;-61
2024/01/09 04:50:58;;;;;;;0.90;0.90;;;-7.00;99.90;;;;;;4390499;32;20129;-62
2024/01/09 04:53:23;;;;;;;1.67;1.58;;;-7.00;99.90;;;;;;4387504;32;20699;-63
2024/01/09 04:55:48;;;;;;;0.45;0.45;;;-7.00;99.90;;;;;;4388643;32;20187;-62
2024/01/09 04:58:14;;;;;;;1.42;1.33;;;-7.10;99.90;;;;;;4389975;32;20154;-62
2024/01/09 05:00:39;;;;;;;0.80;0.80;;;-7.10;99.90;;;;;;4390635;32;20137;-62
2024/01/09 05:03:05;;;;;;;0.90;0.90;;;-7.20;99.90;;;;;;4385948;32;20073;-61
2024/01/09 05:05:30;;;;;;;2.83;2.05;;;-7.20;99.90;;;;;;4390592;32;20067;-64
2024/01/09 05:07:56;;;;;;;0.40;0.40;;;-7.30;99.90;;;;;;4390010;32;20170;-61
2024/01/09 05:10:21;;;;;;;0.68;0.68;;;-7.20;99.90;;;;;;4375769;32;20466;-63
2024/01/09 05:12:47;;;;;;;0.47;0.47;;;-7.20;99.90;;;;;;4387469;32;20551;-63
2024/01/09 05:15:13;;;;;;;0.47;0.47;;;-7.10;99.90;;;;;;4389447;32;20070;-63
2024/01/09 05:17:39;;;;;;;0.40;0.40;;;-7.10;99.90;;;;;;4390005;32;20513;-63
2024/01/09 05:20:04;;;;;;;0.40;0.40;;;-7.10;99.90;;;;;;4390939;32;20061;-64
2024/01/09 05:22:30;;;;;;;0.70;0.70;;;-7.20;99.90;;;;;;4369788;32;20096;-64
2024/01/09 05:24:55;;;;;;;0.40;0.40;;;-7.20;99.90;;;;;;4389098;32;20071;-63
2024/01/09 05:27:21;;;;;;;0.88;0.85;;;-7.20;99.90;;;;;;4389615;32;20137;-63
2024/01/09 05:29:46;;;;;;;1.60;1.50;;;-7.30;99.90;;;;;;4389776;32;20167;-63
2024/01/09 05:32:12;;;;;;;0.50;0.50;;;-7.20;99.90;;;;;;4389159;32;20133;-63
2024/01/09 05:34:38;;;;;;;1.02;1.02;;;-7.20;99.90;;;;;;4390015;32;20554;-64
2024/01/09 05:37:04;;;;;;;0.95;0.95;;;-7.10;99.90;;;;;;4386634;32;20099;-63
2024/01/09 05:39:29;;;;;;;0.60;0.60;;;-7.10;99.90;;;;;;4387147;32;20069;-63
2024/01/09 05:41:55;;;;;;;1.75;1.48;;;-7.20;99.90;;;;;;4390292;32;20412;-64
2024/01/09 05:44:22;;;;;;;0.40;0.40;;;-7.30;99.90;;;;;;4386458;32;20605;-64
2024/01/09 05:46:49;;;;;;;0.95;0.93;;;-7.30;99.90;;;;;;4387608;32;20087;-63
2024/01/09 05:49:15;;;;;;;0.60;0.60;;;-7.30;99.90;;;;;;4386486;32;20505;-64
2024/01/09 05:51:40;;;;;;;2.72;2.42;;;-7.30;99.90;;;;;;4383013;32;20148;-63
2024/01/09 05:54:06;;;;;;;0.50;0.50;;;-7.30;99.90;;;;;;4387018;32;20095;-63
2024/01/09 05:56:31;;;;;;;0.60;0.60;;;-7.20;99.90;;;;;;4386788;32;20722;-63
2024/01/09 05:58:56;;;;;;;16.85;3.35;;;-7.30;99.90;;;;;;4387134;32;20137;-64
2024/01/09 06:01:22;;;;;;;1.85;1.73;;;-7.30;99.90;;;;;;4384006;32;20078;-63
2024/01/09 06:03:47;;;;;;;0.95;0.95;;;-7.30;99.90;;;;;;4388085;32;20070;-63
2024/01/09 06:06:13;;;;;;;0.50;0.50;;;-7.30;99.90;;;;;;4352571;32;20094;-64
2024/01/09 06:08:38;;;;;;;0.40;0.40;;;-7.30;99.90;;;;;;4380052;32;20073;-64
2024/01/09 06:11:06;;;;;;;3.15;2.25;;;-7.30;99.90;;;;;;4385849;32;20093;-63
2024/01/09 06:13:32;;;;;;;0.50;0.50;;;-7.30;99.90;;;;;;4375286;32;20102;-63
2024/01/09 06:15:58;;;;;;;0.77;0.77;;;-7.40;99.90;;;;;;4385176;32;20074;-63
2024/01/09 06:18:24;;;;;;;0.60;0.60;;;-7.40;99.90;;;;;;4380677;32;20413;-63
2024/01/09 06:20:49;;;;;;;0.88;0.88;;;-7.40;99.90;;;;;;4371882;32;20127;-64
2024/01/09 06:23:18;;;;;;;0.65;0.65;;;-7.40;99.90;;;;;;4375597;32;20128;-63
2024/01/09 06:25:43;;;;;;;0.65;0.65;;;-7.40;99.90;;;;;;4377818;32;20154;-64
2024/01/09 06:28:09;;;;;;;0.98;0.98;;;-7.40;99.90;;;;;;4371427;32;20110;-63
2024/01/09 06:30:34;;;;;;;1.55;1.45;;;-7.40;99.90;;;;;;4379775;32;20098;-63
2024/01/09 06:33:01;;;;;;;3.83;3.45;;;-7.40;99.90;;;;;;4380699;32;20081;-64
2024/01/09 06:35:27;;;;;;;0.73;0.73;;;-7.40;99.90;;;;;;4377668;32;20129;-65
2024/01/09 06:37:53;;;;;;;1.27;1.25;;;-7.40;99.90;;;;;;4376651;32;20447;-63
2024/01/09 06:40:20;;;;;;;0.50;0.50;;;-7.40;99.90;;;;;;4374787;32;20249;-65
2024/01/09 06:42:46;;;;;;;2.28;1.20;;;-7.40;99.90;;;;;;4375542;32;20153;-63
2024/01/09 06:45:14;;;;;;;0.88;0.88;;;-7.40;99.90;;;;;;4378622;32;20073;-63
2024/01/09 06:47:40;;;;;;;3.12;2.03;;;-7.50;99.90;;;;;;4363072;32;20427;-63
2024/01/09 06:50:06;;;;;;;0.50;0.50;;;-7.40;99.90;;;;;;4376362;32;20572;-64
2024/01/09 06:52:32;;;;;;;1.50;1.40;;;-7.40;99.90;;;;;;4357643;32;20168;-62
2024/01/09 06:54:57;;;;;;;4.22;3.22;;;-7.40;99.90;;;;;;4367938;32;20508;-65
2024/01/09 06:57:23;;;;;;;0.60;0.60;;;-7.40;99.90;;;;;;4359749;32;20086;-63
2024/01/09 06:59:49;;;;;;;1.48;1.37;;;-7.40;99.90;;;;;;4364847;32;20564;-64
2024/01/09 07:02:14;;;;;;;3.40;2.35;;;-7.50;99.90;;;;;;4354947;32;20212;-63
2024/01/09 07:04:40;;;;;;;0.65;0.65;;;-7.50;99.90;;;;;;4353551;32;20137;-63
2024/01/09 07:07:05;;;;;;;2.28;2.08;;;-7.50;99.90;;;;;;4342718;32;20505;-64
2024/01/09 07:09:30;;;;;;;0.70;0.70;;;-7.50;99.90;;;;;;4361005;32;20074;-65
2024/01/09 07:11:56;;;;;;;0.60;0.60;;;-7.50;99.90;;;;;;4357601;32;20111;-64
2024/01/09 07:14:21;;;;;;;0.70;0.70;;;-7.40;99.90;;;;;;4362342;32;20090;-63
2024/01/09 07:16:47;;;;;;;1.25;1.20;;;-7.40;99.90;;;;;;4367332;32;20537;-64
2024/01/09 07:19:13;;;;;;;3.47;2.28;;;-7.50;99.90;;;;;;4362298;32;21358;-63
2024/01/09 07:21:38;;;;;;;0.60;0.60;;;-7.50;99.90;;;;;;4363328;32;20078;-64
2024/01/09 07:24:04;;;;;;;0.70;0.70;;;-7.50;99.90;;;;;;4361741;32;20141;-65
2024/01/09 07:26:30;;;;;;;0.65;0.65;;;-7.50;99.90;;;;;;4366119;32;20176;-65
2024/01/09 07:28:55;;;;;;;1.45;1.35;;;-7.50;99.90;;;;;;4366106;32;20552;-62
2024/01/09 07:31:21;;;;;;;1.87;1.75;;;-7.50;99.90;;;;;;4366090;32;20107;-62
2024/01/09 07:33:46;;;;;;;0.50;0.50;;;-7.40;99.90;;;;;;4360757;32;20259;-64
2024/01/09 07:36:12;;;;;;;0.50;0.50;;;-7.40;99.90;;;;;;4361851;32;20748;-63
2024/01/09 07:38:38;;;;;;;23.75;3.70;;;-7.50;99.90;;;;;;4360640;32;20090;-63
2024/01/09 07:41:03;;;;;;;0.50;0.50;;;-7.50;99.90;;;;;;4360839;32;20095;-65
2024/01/09 07:43:29;;;;;;;13.25;2.00;;;-7.40;99.90;;;;;;4360560;32;20078;-62
2024/01/09 07:45:55;;;;;;;1.50;1.40;;;-7.40;99.90;;;;;;4351001;32;20082;-64
2024/01/09 07:48:21;;;;;;;3.97;1.45;;;-7.30;99.90;;;;;;4362364;32;20180;-64
2024/01/09 07:50:46;;;;;;;0.60;0.60;;;-7.40;99.90;;;;;;4360476;32;24712;-62
2024/01/09 07:53:12;;;;;;;1.50;1.40;;;-7.40;99.90;;;;;;4357359;32;20102;-63
2024/01/09 07:55:37;;;;;;;0.55;0.55;;;-7.30;99.90;;;;;;4363693;32;21588;-64
2024/01/09 07:58:04;;;;;;;1.80;1.67;;;-7.30;99.90;;;;;;4365085;32;20512;-63
2024/01/09 08:00:32;;;;;;;0.45;0.45;;;-7.30;99.90;;;;;;4361259;32;20081;-62
2024/01/09 08:02:59;;;;;;;2.22;1.40;;;-7.30;99.90;;;;;;4366632;32;20125;-62
2024/01/09 08:05:24;;;;;;;3.80;3.05;;;-7.30;99.90;;;;;;4361863;32;20082;-63
2024/01/09 08:07:50;;;;;;;3.25;2.95;;;-7.30;99.90;;;;;;4361471;32;20118;-63
2024/01/09 08:10:16;;;;;;;0.80;0.80;;;-7.30;99.90;;;;;;4362414;32;20115;-63
2024/01/09 08:12:42;;;;;;;0.88;0.85;;;-7.20;99.90;;;;;;4360063;32;20199;-63
2024/01/09 08:15:07;;;;;;;7.53;5.00;;;-7.20;99.90;;;;;;4363967;32;20153;-64
2024/01/09 08:17:33;;;;;;;2.15;1.98;;;-7.20;99.90;;;;;;4362695;32;20078;-64
2024/01/09 08:19:58;;;;;;;4.00;3.15;;;-7.10;99.90;;;;;;4349811;32;20531;-64
2024/01/09 08:22:24;;;;;;;0.60;0.60;;;-7.10;99.90;;;;;;4363421;32;20074;-63
2024/01/09 08:24:50;;;;;;;0.62;0.62;;;-7.00;99.90;;;;;;4361143;32;20093;-64
2024/01/09 08:27:15;;;;;;;1.98;1.83;;;-6.90;99.90;;;;;;4367546;32;20451;-62
2024/01/09 08:29:43;;;;;;;0.47;0.47;;;-6.80;99.90;;;;;;4361185;32;20522;-64
2024/01/09 08:32:11;;;;;;;2.28;2.08;;;-6.70;99.90;;;;;;4364194;32;20086;-60
2024/01/09 08:34:36;;;;;;;2.42;2.22;;;-6.70;99.90;;;;;;4365058;32;20621;-64
2024/01/09 08:37:02;;;;;;;32.08;5.25;;;-6.70;99.90;;;;;;4365410;32;20094;-63
2024/01/09 08:39:28;;;;;;;1.25;1.25;;;-6.70;99.90;;;;;;4357054;32;20090;-62
2024/01/09 08:41:53;;;;;;;0.50;0.50;;;-6.60;99.90;;;;;;4362310;32;20144;-65
2024/01/09 08:44:19;;;;;;;1.95;1.50;;;-6.50;99.90;;;;;;4364548;32;20927;-63
2024/01/09 08:46:45;;;;;;;1.33;1.23;;;-6.50;99.90;;;;;;4355178;32;20150;-63
2024/01/09 08:49:12;;;;;;;2.53;2.20;;;-6.50;99.90;;;;;;4353797;32;20915;-60
2024/01/09 08:51:38;;;;;;;0.60;0.60;;;-6.40;99.90;;;;;;4356214;32;20066;-64
2024/01/09 08:54:04;;;;;;;1.08;1.08;;;-6.30;99.90;;;;;;4356986;32;20081;-65
2024/01/09 08:56:29;;;;;;;0.73;0.73;;;-6.20;99.90;;;;;;4355859;32;20098;-62
2024/01/09 08:58:55;;;;;;;0.52;0.52;;;-6.20;99.90;;;;;;4357411;32;20087;-64
2024/01/09 09:01:20;;;;;;;1.05;1.05;;;-6.20;99.90;;;;;;4362242;32;20409;-62
2024/01/09 09:03:47;;;;;;;1.30;1.25;;;-6.10;99.90;;;;;;4372357;32;20584;-63
2024/01/09 09:06:12;;;;;;;0.50;0.50;;;-5.90;99.90;;;;;;4346981;32;20169;-63
2024/01/09 09:08:39;;;;;;;0.62;0.62;;;-5.80;99.90;;;;;;4363129;32;20090;-61
2024/01/09 09:11:07;;;;;;;1.27;1.17;;;-5.80;99.90;;;;;;4358065;32;21227;-64
2024/01/09 09:13:32;;;;;;;1.17;1.17;;;-5.80;99.90;;;;;;4358365;32;20820;-62
2024/01/09 09:15:58;;;;;;;0.50;0.50;;;-5.70;99.90;;;;;;4358730;32;20083;-63
2024/01/09 09:18:23;;;;;;;1.10;1.10;;;-5.50;99.90;;;;;;4363105;32;20082;-64
2024/01/09 09:20:48;;;;;;;0.50;0.50;;;-5.40;99.90;;;;;;4353878;32;20090;-63
2024/01/09 09:23:14;;;;;;;2.62;0.90;;;-5.40;99.90;;;;;;4331827;32;20102;-62
2024/01/09 09:25:39;;;;;;;1.23;1.23;;;-5.50;99.90;;;;;;4351768;32;20154;-63
2024/01/09 09:28:05;;;;;;;5.45;1.25;;;-5.40;99.90;;;;;;4356889;32;20129;-63
2024/01/09 09:30:31;;;;;;;0.90;0.90;;;-5.40;99.90;;;;;;4351790;32;20463;-65
2024/01/09 09:32:58;;;;;;;8.95;3.30;;;-5.30;99.90;;;;;;4349282;32;20114;-62
2024/01/09 09:35:24;;;;;;;0.40;0.40;;;-5.20;99.90;;;;;;4353349;32;20400;-62
2024/01/09 09:37:49;;;;;;;1.40;1.30;;;-5.10;99.90;;;;;;4346196;32;20258;-62
2024/01/09 09:40:15;;;;;;;2.65;1.60;;;-5.00;99.90;;;;;;4354665;32;20102;-61
2024/01/09 09:42:43;;;;;;;3.65;1.75;;;-4.90;99.90;;;;;;4371666;32;20254;-61
2024/01/09 09:45:11;;;;;;;1.62;1.37;;;-4.90;99.90;;;;;;4368838;32;20090;-61
2024/01/09 09:47:39;;;;;;;0.93;0.93;;;-4.80;99.90;;;;;;4372498;32;20121;-59
2024/01/09 09:50:05;;;;;;;0.82;0.82;;;-4.80;99.90;;;;;;4359411;32;20089;-61
2024/01/09 09:52:35;;;;;;;3.10;2.35;;;-4.90;99.90;;;;;;4374993;32;20392;-61
2024/01/09 09:55:00;;;;;;;0.50;0.50;;;-4.80;99.90;;;;;;4375544;32;20094;-59
2024/01/09 09:57:26;;;;;;;0.90;0.90;;;-4.70;99.90;;;;;;4373087;32;20085;-60
2024/01/09 09:59:52;;;;;;;1.17;1.10;;;-4.70;99.90;;;;;;4372144;32;20119;-60
2024/01/09 10:02:25;;;;;;;0.65;0.65;;;-4.60;99.90;;;;;;4376298;32;20102;-60
2024/01/09 10:04:52;;;;;;;8.88;4.53;;;-4.40;99.90;;;;;;4378314;32;20082;-62
2024/01/09 10:07:21;;;;;;;1.08;1.08;;;-4.30;99.90;;;;;;4372079;32;20142;-63
2024/01/09 10:09:51;;;;;;;1.65;1.52;;;-4.20;99.90;;;;;;4374708;32;20681;-62
2024/01/09 10:12:19;;;;;;;13.15;5.35;;;-4.20;99.90;;;;;;4360173;32;20137;-62
2024/01/09 10:15:07;;;;;;;0.68;0.68;;;-4.10;99.90;;;;;;4368408;32;20101;-62
2024/01/09 10:17:33;;;;;;;1.20;1.15;;;-4.00;99.90;;;;;;4355753;32;21379;-62
2024/01/09 10:19:59;;;;;;;4.00;2.72;;;-3.90;99.90;;;;;;4371478;32;20196;-62
2024/01/09 10:22:28;;;;;;;1.90;1.50;;;-3.70;99.90;;;;;;4374859;32;20066;-62
2024/01/09 10:24:53;;;;;;;0.70;0.70;;;-3.60;99.90;;;;;;4371647;32;20293;-62
2024/01/09 10:27:21;;;;;;;2.47;1.87;;;-3.40;99.90;;;;;;4366345;32;20093;-62
2024/01/09 10:29:46;;;;;;;3.62;2.62;;;-3.30;99.90;;;;;;4368651;32;20109;-62
2024/01/09 10:32:14;;;;;;;1.23;1.17;;;-3.40;99.90;;;;;;4371141;32;21173;-62
2024/01/09 10:34:39;;;;;;;1.20;0.77;;;-3.50;99.90;;;;;;4360012;32;20109;-62
2024/01/09 10:37:07;;;;;;;0.85;0.85;;;-3.40;99.90;;;;;;4373434;32;20730;-63
2024/01/09 10:39:33;;;;;;;1.45;1.33;;;-3.40;99.90;;;;;;4376099;32;20078;-62
2024/01/09 10:42:04;;;;;;;0.60;0.60;;;-3.40;99.90;;;;;;4375563;32;20084;-62
2024/01/09 10:44:31;;;;;;;15.13;4.65;;;-3.30;99.90;;;;;;4370427;32;20095;-61
2024/01/09 10:46:59;;;;;;;11.23;2.25;;;-3.30;99.90;;;;;;4372658;32;20103;-60
2024/01/09 10:49:25;;;;;;;1.27;1.25;;;-3.10;99.90;;;;;;4371997;32;20099;-62
2024/01/09 10:51:52;;;;;;;0.82;0.82;;;-3.10;99.90;;;;;;4370202;32;20167;-61
2024/01/09 10:54:20;;;;;;;1.10;1.10;;;-3.10;99.90;;;;;;4342827;32;20098;-60
2024/01/09 10:56:47;;;;;;;1.48;1.37;;;-3.10;99.90;;;;;;4356930;32;20173;-60
2024/01/09 10:59:15;;;;;;;2.55;1.42;;;-3.10;99.90;;;;;;4375905;32;20366;-58
2024/01/09 11:01:40;;;;;;;0.68;0.68;;;-3.20;99.90;;;;;;4373686;32;20293;-61
2024/01/09 11:04:07;;;;;;;1.73;1.62;;;-3.20;99.90;;;;;;4372725;32;20098;-61
2024/01/09 11:06:35;;;;;;;1.62;1.17;;;-3.30;99.90;;;;;;4355021;32;20101;-61
2024/01/09 11:09:04;;;;;;;1.37;1.27;;;-3.10;99.90;;;;;;4372849;32;20102;-60
2024/01/09 11:11:33;;;;;;;1.10;1.05;;;-2.90;99.90;;;;;;4357819;32;20187;-61
2024/01/09 11:14:04;;;;;;;13.77;3.87;;;-2.80;99.90;;;;;;4373590;32;20175;-61
2024/01/09 11:16:32;;;;;;;2.85;2.08;;;-2.80;99.90;;;;;;4340131;32;20137;-60
2024/01/09 11:18:59;;;;;;;3.78;2.22;;;-2.60;99.90;;;;;;4350481;32;20703;-60
2024/01/09 11:21:25;;;;;;;0.88;0.88;;;-2.60;99.90;;;;;;4353163;32;20537;-61
2024/01/09 11:23:54;;;;;;;1.33;1.25;;;-2.30;99.90;;;;;;4357926;32;20211;-61
2024/01/09 11:26:20;;;;;;;0.62;0.57;;;-2.10;99.90;;;;;;4362352;32;20144;-62
2024/01/09 11:28:46;;;;;;;2.25;2.00;;;-1.90;99.90;;;;;;4364614;32;20446;-61
2024/01/09 11:31:20;;;;;;;3.62;1.95;;;-2.00;99.90;;;;;;4365266;32;20098;-61
2024/01/09 11:33:48;;;;;;;0.80;0.80;;;-2.00;99.90;;;;;;4367045;32;20086;-62
2024/01/09 11:36:22;;;;;;;2.58;1.73;;;-1.80;99.90;;;;;;4354875;32;20090;-61
2024/01/09 11:38:50;;;;;;;0.70;0.70;;;-1.70;99.90;;;;;;4364041;32;20304;-62
2024/01/09 11:41:15;;;;;;;11.55;2.08;;;-1.50;99.90;;;;;;4367921;32;20491;-62
2024/01/09 11:44:00;;;;;;;0.70;0.70;;;-1.40;99.90;;;;;;4360712;32;20090;-62
2024/01/09 11:46:27;;;;;;;1.42;1.33;;;-1.20;99.90;;;;;;4352733;32;20074;-59
2024/01/09 11:48:53;;;;;;;0.82;0.82;;;-1.20;99.90;;;;;;4357617;32;22082;-59
2024/01/09 11:51:20;;;;;;;0.50;0.50;;;-1.30;99.90;;;;;;4343277;32;88672;-60
2024/01/09 11:53:46;;;;;;;0.98;0.95;;;-1.60;99.90;;;;;;4369880;32;20166;-60
2024/01/09 11:56:12;;;;;;;0.95;0.95;;;-1.40;99.90;;;;;;4358242;32;20129;-61
2024/01/09 11:58:38;;;;;;;1.12;1.12;;;-1.30;99.90;;;;;;4336098;32;20074;-60
2024/01/09 12:01:05;;;;;;;9.40;1.75;;;-1.30;99.90;;;;;;4354100;32;20197;-61
2024/01/09 12:03:31;;;;;;;1.85;1.40;;;-1.40;99.90;;;;;;4359867;32;20969;-59
2024/01/09 12:05:56;;;;;;;0.93;0.93;;;-1.10;99.90;;;;;;4347256;32;20194;-61
2024/01/09 12:08:24;;;;;;;2.83;2.30;;;-1.00;99.90;;;;;;4356015;32;20079;-59
2024/01/09 12:10:49;;;;;;;0.88;0.88;;;-0.60;99.90;;;;;;4368433;32;20062;-61
2024/01/09 12:13:18;;;;;;;0.68;0.68;;;-0.30;99.90;;;;;;4361472;32;20292;-60
2024/01/09 12:15:43;;;;;;;1.20;1.10;;;0.10;99.90;;;;;;4347151;32;22274;-60
2024/01/09 12:18:09;;;;;;;3.60;1.85;;;0.20;99.90;;;;;;4360815;32;20062;-61
2024/01/09 12:20:36;;;;;;;2.97;2.00;;;0.60;99.90;;;;;;4344021;32;20086;-60
2024/01/09 12:23:02;;;;;;;3.75;3.00;;;1.00;99.90;;;;;;4357933;32;20098;-60
2024/01/09 12:25:28;;;;;;;2.12;1.87;;;1.00;99.90;;;;;;4348219;32;21059;-61
2024/01/09 12:27:54;;;;;;;1.92;1.67;;;1.10;99.90;;;;;;4358848;32;20099;-61
2024/01/09 12:30:20;;;;;;;2.28;1.75;;;1.10;99.90;;;;;;4363235;32;20124;-61
2024/01/09 12:32:46;;;;;;;1.48;1.12;;;1.30;99.90;;;;;;4365869;32;20082;-60
2024/01/09 12:35:12;;;;;;;2.17;1.95;;;1.40;99.90;;;;;;4347333;32;20085;-61
2024/01/09 12:37:38;;;;;;;0.77;0.77;;;1.40;99.90;;;;;;4362180;32;20094;-60
2024/01/09 12:40:09;;;;;;;1.73;1.62;;;1.50;99.90;;;;;;4340857;32;21295;-60
2024/01/09 12:42:35;;;;;;;1.37;0.98;;;1.30;99.90;;;;;;4352667;32;20161;-60